createdAt,value
2018-12-24T00:01:19.959Z,99727.72
2018-12-24T00:04:23.857Z,99733.96
2018-12-24T00:07:27.811Z,99731.69
2018-12-24T00:10:32.691Z,99732.63
2018-12-24T00:13:37.611Z,99726.73
2018-12-24T00:16:41.525Z,99737.34
2018-12-24T00:19:45.473Z,99735.88
2018-12-24T00:22:49.396Z,99736.26
2018-12-24T00:25:53.331Z,99752.52
2018-12-24T00:28:57.168Z,99765.78
2018-12-24T00:32:01.093Z,99767.69
2018-12-24T00:35:05.199Z,99767.69
2018-12-24T00:38:09.116Z,99771.67
2018-12-24T00:41:13.023Z,99773.11
2018-12-24T00:44:16.944Z,99774.91
2018-12-24T00:47:20.850Z,99773.94
2018-12-24T00:50:24.817Z,99762.27
2018-12-24T00:53:28.658Z,99770.93
2018-12-24T00:56:33.614Z,99765.75
2018-12-24T00:59:37.516Z,99766.25
2018-12-24T01:02:41.432Z,99763.59
2018-12-24T01:05:45.336Z,99767.19
2018-12-24T01:08:49.247Z,99759.23
2018-12-24T01:11:53.156Z,99761.88
2018-12-24T01:14:58.098Z,99765.39
2018-12-24T01:18:03.031Z,99765.86
2018-12-24T01:21:06.956Z,99759.23
2018-12-24T01:24:10.844Z,99754.91
2018-12-24T01:27:14.759Z,99749.72
2018-12-24T01:30:18.696Z,99751.90
2018-12-24T01:33:22.961Z,99757.20
2018-12-24T01:36:28.026Z,99751.52
2018-12-24T01:39:33.528Z,99750.69
2018-12-24T01:42:39.990Z,99743.56
2018-12-24T01:45:44.160Z,99750.69
2018-12-24T01:48:49.363Z,99755.02
2018-12-24T01:51:55.434Z,99759.47
2018-12-24T01:54:59.931Z,99765.74
2018-12-24T01:58:04.991Z,99761.41
2018-12-24T02:01:10.217Z,99756.46
2018-12-24T02:04:15.308Z,99757.32
2018-12-24T02:07:21.095Z,99759.11
2018-12-24T02:10:26.114Z,99761.41
2018-12-24T02:13:31.905Z,99756.81
2018-12-24T02:16:37.787Z,99758.76
2018-12-24T02:19:43.000Z,99768.04
2018-12-24T02:22:46.831Z,99772.13
2018-12-24T02:25:51.846Z,99763.71
2018-12-24T02:28:56.529Z,99765.63
2018-12-24T02:32:01.479Z,99762.97
2018-12-24T02:35:06.282Z,99762.86
2018-12-24T02:38:11.694Z,99761.64
2018-12-24T02:41:16.523Z,99768.16
2018-12-24T02:44:21.478Z,99773.92
2018-12-24T02:47:26.447Z,99769.59
2018-12-24T02:50:31.232Z,99772.98
2018-12-24T02:53:35.267Z,99778.88
2018-12-24T02:56:39.313Z,99772.25
2018-12-24T02:59:43.263Z,99773.58
2018-12-24T03:02:47.203Z,99769.59
2018-12-24T03:05:51.911Z,99784.77
2018-12-24T03:08:57.532Z,99784.18
2018-12-24T03:12:02.072Z,99788.63
2018-12-24T03:15:07.143Z,99799.34
2018-12-24T03:18:12.159Z,99810.34
2018-12-24T03:21:16.756Z,99805.50
2018-12-24T03:24:20.925Z,99805.14
2018-12-24T03:27:25.590Z,99805.03
2018-12-24T03:30:30.347Z,99795.02
2018-12-24T03:33:34.839Z,99796.34
2018-12-24T03:36:40.123Z,99796.69
2018-12-24T03:39:45.337Z,99801.99
2018-12-24T03:42:50.276Z,99809.59
2018-12-24T03:45:54.911Z,99818.41
2018-12-24T03:48:59.502Z,99811.27
2018-12-24T03:52:04.101Z,99810.92
2018-12-24T03:55:08.612Z,99816.22
2018-12-24T03:58:13.375Z,99819.34
2018-12-24T04:01:17.250Z,99818.52
2018-12-24T04:04:21.692Z,99830.09
2018-12-24T04:07:26.048Z,99833.67
2018-12-24T04:10:30.472Z,99834.42
2018-12-24T04:13:34.983Z,99845.49
2018-12-24T04:16:40.281Z,99847.67
2018-12-24T04:19:44.832Z,99849.47
2018-12-24T04:22:49.853Z,99860.19
2018-12-24T04:25:54.826Z,99872.50
2018-12-24T04:28:59.252Z,99882.61
2018-12-24T04:32:04.006Z,99888.77
2018-12-24T04:35:09.048Z,99897.69
2018-12-24T04:38:13.727Z,99902.59
2018-12-24T04:41:18.201Z,99917.06
2018-12-24T04:44:22.935Z,99917.17
2018-12-24T04:47:27.670Z,99930.81
2018-12-24T04:50:32.377Z,99946.34
2018-12-24T04:53:37.816Z,99954.67
2018-12-24T04:56:42.239Z,99961.41
2018-12-24T04:59:46.536Z,99976.46
2018-12-24T05:02:50.978Z,99992.72
2018-12-24T05:05:55.604Z,100002.50
2018-12-24T05:09:00.813Z,100013.11
2018-12-24T05:12:07.260Z,100025.86
2018-12-24T05:15:11.206Z,100045.38
2018-12-24T05:18:17.931Z,100062.50
2018-12-24T05:21:22.637Z,100074.90
2018-12-24T05:24:27.836Z,100102.38
2018-12-24T05:27:34.037Z,100115.52
2018-12-24T05:30:39.819Z,100125.48
2018-12-24T05:33:44.501Z,100143.10
2018-12-24T05:36:49.223Z,100153.81
2018-12-24T05:39:54.126Z,100170.94
2018-12-24T05:43:34.983Z,100184.80
2018-12-24T05:46:41.296Z,100200.66
2018-12-24T05:49:45.443Z,100212.95
2018-12-24T05:52:50.684Z,100235.02
2018-12-24T05:55:55.117Z,100242.11
2018-12-24T05:58:59.420Z,100251.03
2018-12-24T06:02:03.399Z,100270.91
2018-12-24T06:05:07.555Z,100287.18
2018-12-24T06:08:11.484Z,100299.11
2018-12-24T06:11:15.647Z,100304.05
2018-12-24T06:14:20.227Z,100330.45
2018-12-24T06:17:25.503Z,100343.34
2018-12-24T06:20:37.522Z,100359.72
2018-12-24T06:23:35.397Z,100373.83
2018-12-24T06:26:39.812Z,100396.27
2018-12-24T06:29:43.818Z,100409.13
2018-12-24T06:32:48.990Z,100413.69
2018-12-24T06:35:52.958Z,100434.30
2018-12-24T06:38:57.802Z,100449.84
2018-12-24T06:42:01.723Z,100461.41
2018-12-24T06:45:06.827Z,100476.36
2018-12-24T06:48:11.038Z,100487.42
2018-12-24T06:51:15.097Z,100495.01
2018-12-24T06:54:19.441Z,100497.20
2018-12-24T06:57:23.355Z,100510.45
2018-12-24T07:00:28.771Z,100520.09
2018-12-24T07:03:33.117Z,100534.67
2018-12-24T07:06:37.184Z,100541.77
2018-12-24T07:09:43.489Z,100558.17
2018-12-24T07:12:49.682Z,100565.63
2018-12-24T07:15:54.818Z,100573.12
2018-12-24T07:18:59.115Z,100587.79
2018-12-24T07:22:03.556Z,100601.91
2018-12-24T07:25:08.173Z,100610.42
2018-12-24T07:28:12.169Z,100616.13
2018-12-24T07:31:17.843Z,100627.09
2018-12-24T07:34:21.558Z,100632.86
2018-12-24T07:37:25.304Z,100646.61
2018-12-24T07:40:29.276Z,100645.38
2018-12-24T07:43:33.050Z,100656.81
2018-12-24T07:46:36.796Z,100663.07
2018-12-24T07:49:40.836Z,100668.38
2018-12-24T07:52:44.355Z,100679.75
2018-12-24T07:55:47.992Z,100699.23
2018-12-24T07:58:52.072Z,100704.53
2018-12-24T08:01:55.906Z,100714.30
2018-12-24T08:05:00.316Z,100721.30
2018-12-24T08:08:03.821Z,100726.69
2018-12-24T08:11:07.330Z,100740.81
2018-12-24T08:14:10.846Z,100748.27
2018-12-24T08:17:14.395Z,100754.53
2018-12-24T08:20:18.039Z,100771.76
2018-12-24T08:23:21.541Z,100778.02
2018-12-24T08:26:25.057Z,100790.31
2018-12-24T08:29:28.653Z,100796.57
2018-12-24T08:32:32.238Z,100802.24
2018-12-24T08:35:35.782Z,100803.57
2018-12-24T08:38:43.350Z,100809.83
2018-12-24T08:41:46.866Z,100819.10
2018-12-24T08:44:50.358Z,100824.78
2018-12-24T08:47:55.892Z,100827.06
2018-12-24T08:50:59.417Z,100831.03
2018-12-24T08:54:02.904Z,100842.96
2018-12-24T08:57:06.402Z,100851.47
2018-12-24T09:00:09.903Z,100854.89
2018-12-24T09:03:15.453Z,100866.91
2018-12-24T09:06:18.961Z,100876.10
2018-12-24T09:09:22.477Z,100886.61
2018-12-24T09:12:25.942Z,100882.64
2018-12-24T09:15:31.509Z,100885.58
2018-12-24T09:18:37.054Z,100894.67
2018-12-24T09:21:40.548Z,100898.48
2018-12-24T09:24:44.042Z,100903.20
2018-12-24T09:27:48.579Z,100895.61
2018-12-24T09:30:52.803Z,100899.50
2018-12-24T09:33:56.407Z,100914.41
2018-12-24T09:36:59.906Z,100914.77
2018-12-24T09:40:03.449Z,100927.08
2018-12-24T09:43:06.998Z,100930.97
2018-12-24T09:46:10.517Z,100946.02
2018-12-24T09:49:14.098Z,100951.72
2018-12-24T09:52:17.599Z,100955.98
2018-12-24T09:55:21.157Z,100955.98
2018-12-24T09:58:25.655Z,100962.53
2018-12-24T10:01:29.135Z,100966.51
2018-12-24T10:04:39.197Z,100972.19
2018-12-24T10:07:42.714Z,100977.86
2018-12-24T10:10:46.203Z,100986.68
2018-12-24T10:13:49.685Z,100983.98
2018-12-24T10:16:53.211Z,100988.41
2018-12-24T10:19:56.726Z,100989.28
2018-12-24T10:23:00.200Z,101001.59
2018-12-24T10:26:03.725Z,101004.24
2018-12-24T10:29:07.296Z,101000.27
2018-12-24T10:32:10.931Z,101012.61
2018-12-24T10:35:15.462Z,101009.38
2018-12-24T10:38:18.933Z,101008.05
2018-12-24T10:41:25.519Z,101008.54
2018-12-24T10:44:28.969Z,101012.02
2018-12-24T10:47:32.507Z,101012.02
2018-12-24T10:50:36.035Z,101019.06
2018-12-24T10:53:40.622Z,101020.77
2018-12-24T10:56:44.247Z,101033.07
2018-12-24T10:59:47.735Z,101031.38
2018-12-24T11:02:51.226Z,101037.42
2018-12-24T11:05:54.739Z,101036.50
2018-12-24T11:08:58.273Z,101035.55
2018-12-24T11:12:02.756Z,101039.91
2018-12-24T11:15:08.145Z,101033.27
2018-12-24T11:18:11.631Z,101030.24
2018-12-24T11:21:15.552Z,101052.25
2018-12-24T11:24:28.826Z,101048.73
2018-12-24T11:27:37.816Z,101050.52
2018-12-24T11:30:41.997Z,101052.25
2018-12-24T11:33:51.444Z,101058.56
2018-12-24T11:36:56.955Z,101069.08
2018-12-24T11:40:01.341Z,101078.00
2018-12-24T11:43:04.811Z,101071.73
2018-12-24T11:46:08.324Z,101069.95
2018-12-24T11:49:11.808Z,101069.58
2018-12-24T11:52:17.344Z,101068.71
2018-12-24T11:55:21.074Z,101071.36
2018-12-24T11:58:24.577Z,101083.30
2018-12-24T12:01:29.136Z,101088.52
2018-12-24T12:04:32.590Z,101089.39
2018-12-24T12:07:36.100Z,101097.34
2018-12-24T12:10:39.646Z,101096.02
2018-12-24T12:13:43.292Z,101109.66
2018-12-24T12:16:47.864Z,101119.69
2018-12-24T12:19:51.344Z,101133.91
2018-12-24T12:22:54.838Z,101127.28
2018-12-24T12:25:58.359Z,101130.30
2018-12-24T12:29:01.824Z,101137.89
2018-12-24T12:32:06.345Z,101143.36
2018-12-24T12:35:09.934Z,101154.06
2018-12-24T12:38:13.716Z,101159.08
2018-12-24T12:41:17.273Z,101170.64
2018-12-24T12:44:20.810Z,101181.33
2018-12-24T12:47:24.277Z,101182.73
2018-12-24T12:50:27.778Z,101193.34
2018-12-24T12:53:31.316Z,101195.22
2018-12-24T12:56:34.838Z,101209.02
2018-12-24T12:59:38.475Z,101218.30
2018-12-24T13:02:44.038Z,101229.83
2018-12-24T13:05:47.545Z,101227.29
2018-12-24T13:08:51.323Z,101246.31
2018-12-24T13:11:55.973Z,101243.66
2018-12-24T13:14:59.461Z,101254.81
2018-12-24T13:18:02.958Z,101256.14
2018-12-24T13:21:06.489Z,101273.38
2018-12-24T13:24:09.969Z,101275.66
2018-12-24T13:27:14.498Z,101276.60
2018-12-24T13:30:19.001Z,101278.84
2018-12-24T13:33:23.559Z,101284.72
2018-12-24T13:36:27.097Z,101287.75
2018-12-24T13:39:30.737Z,101291.34
2018-12-24T13:42:34.250Z,101314.76
2018-12-24T13:45:37.765Z,101314.84
2018-12-24T13:48:41.269Z,101320.52
2018-12-24T13:51:44.795Z,101324.95
2018-12-24T13:54:48.246Z,101329.42
2018-12-24T13:57:51.803Z,101331.28
2018-12-24T14:00:55.263Z,101333.94
2018-12-24T14:03:58.753Z,101340.56
2018-12-24T14:07:02.251Z,101337.12
2018-12-24T14:10:06.158Z,101345.95
2018-12-24T14:13:09.727Z,101359.28
2018-12-24T14:16:16.924Z,101367.62
2018-12-24T14:19:19.542Z,101367.62
2018-12-24T14:22:23.029Z,101381.37
2018-12-24T14:25:26.530Z,101378.30
2018-12-24T14:28:31.069Z,101388.91
2018-12-24T14:31:34.569Z,101398.30
2018-12-24T14:34:38.164Z,101406.64
2018-12-24T14:37:41.830Z,101403.19
2018-12-24T14:40:45.585Z,101417.40
2018-12-24T14:43:49.228Z,101421.30
2018-12-24T14:46:52.696Z,101422.70
2018-12-24T14:49:58.335Z,101434.17
2018-12-24T14:53:01.933Z,101446.56
2018-12-24T14:56:07.509Z,101445.39
2018-12-24T14:59:12.186Z,101448.04
2018-12-24T15:02:16.767Z,101462.62
2018-12-24T15:05:20.239Z,101464.52
2018-12-24T15:08:24.785Z,101460.13
2018-12-24T15:11:28.494Z,101471.67
2018-12-24T15:14:31.973Z,101472.62
2018-12-24T15:17:35.739Z,101473.00
2018-12-24T15:20:39.393Z,101489.51
2018-12-24T15:23:42.896Z,101489.58
2018-12-24T15:26:47.402Z,101488.67
2018-12-24T15:29:50.914Z,101507.61
2018-12-24T15:32:54.457Z,101506.29
2018-12-24T15:35:59.175Z,101513.30
2018-12-24T15:39:04.143Z,101513.38
2018-12-24T15:42:07.800Z,101516.66
2018-12-24T15:45:11.284Z,101519.30
2018-12-24T15:48:14.813Z,101514.95
2018-12-24T15:51:19.317Z,101524.16
2018-12-24T15:54:22.830Z,101535.59
2018-12-24T15:57:26.378Z,101545.44
2018-12-24T16:00:30.415Z,101549.80
2018-12-24T16:03:36.946Z,101550.32
2018-12-24T16:06:40.322Z,101555.23
2018-12-24T16:09:44.853Z,101560.92
2018-12-24T16:12:48.348Z,101572.47
2018-12-24T16:15:51.820Z,101581.75
2018-12-24T16:18:55.334Z,101577.77
2018-12-24T16:21:58.849Z,101590.50
2018-12-24T16:25:02.336Z,101584.41
2018-12-24T16:28:05.846Z,101587.85
2018-12-24T16:31:09.317Z,101594.06
2018-12-24T16:34:12.847Z,101589.70
2018-12-24T16:37:16.337Z,101596.72
2018-12-24T16:40:19.853Z,101590.50
2018-12-24T16:43:23.361Z,101591.90
2018-12-24T16:46:26.836Z,101587.99
2018-12-24T16:49:30.362Z,101585.41
2018-12-24T16:52:33.861Z,101586.67
2018-12-24T16:55:37.343Z,101578.30
2018-12-24T16:58:40.860Z,101579.63
2018-12-24T17:01:44.360Z,101583.59
2018-12-24T17:04:47.861Z,101580.95
2018-12-24T17:07:53.419Z,101580.95
2018-12-24T17:10:56.923Z,101588.52
2018-12-24T17:14:00.513Z,101581.89
2018-12-24T17:17:07.866Z,101586.25
2018-12-24T17:20:10.543Z,101587.13
2018-12-24T17:23:14.194Z,101587.58
2018-12-24T17:26:17.776Z,101586.81
2018-12-24T17:29:21.504Z,101591.17
2018-12-24T17:32:26.153Z,101591.55
2018-12-24T17:35:29.814Z,101591.97
2018-12-24T17:38:33.387Z,101586.67
2018-12-24T17:41:36.924Z,101582.77
2018-12-24T17:44:40.521Z,101580.95
2018-12-24T17:47:44.035Z,101574.81
2018-12-24T17:50:48.562Z,101577.91
2018-12-24T17:53:54.106Z,101573.55
2018-12-24T17:56:57.607Z,101574.81
2018-12-24T18:00:01.120Z,101583.77
2018-12-24T18:03:05.659Z,101595.28
2018-12-24T18:06:09.135Z,101611.12
2018-12-24T18:09:13.683Z,101628.84
2018-12-24T18:12:17.290Z,101629.61
2018-12-24T18:15:20.876Z,101632.40
2018-12-24T18:18:24.400Z,101620.95
2018-12-24T18:21:27.904Z,101641.22
2018-12-24T18:24:31.368Z,101641.22
2018-12-24T18:27:34.922Z,101649.56
2018-12-24T18:30:38.570Z,101639.45
2018-12-24T18:33:44.119Z,101646.07
2018-12-24T18:36:49.664Z,101644.75
2018-12-24T18:39:53.295Z,101640.21
2018-12-24T18:42:56.976Z,101640.35
2018-12-24T18:46:03.953Z,101634.14
2018-12-24T18:49:07.601Z,101628.84
2018-12-24T18:52:12.122Z,101625.31
2018-12-24T18:55:15.752Z,101629.75
2018-12-24T18:58:19.303Z,101623.99
2018-12-24T19:01:22.813Z,101634.14
2018-12-24T19:04:27.352Z,101633.72
2018-12-24T19:07:30.821Z,101629.22
2018-12-24T19:10:36.403Z,101617.82
2018-12-24T19:13:39.990Z,101616.49
2018-12-24T19:16:43.574Z,101623.99
2018-12-24T19:19:47.106Z,101610.28
2018-12-24T19:22:50.602Z,101611.19
2018-12-24T19:25:54.082Z,101624.93
2018-12-24T19:28:57.601Z,101616.49
2018-12-24T19:32:01.106Z,101612.13
2018-12-24T19:35:04.609Z,101618.76
2018-12-24T19:38:08.110Z,101619.14
2018-12-24T19:41:11.687Z,101619.14
2018-12-24T19:44:16.395Z,101602.86
2018-12-24T19:47:20.026Z,101606.83
2018-12-24T19:50:24.577Z,101606.83
2018-12-24T19:53:31.229Z,101603.80
2018-12-24T19:56:34.836Z,101613.91
2018-12-24T19:59:39.394Z,101616.18
2018-12-24T20:02:42.866Z,101622.80
2018-12-24T20:05:46.353Z,101627.23
2018-12-24T20:08:49.892Z,101622.35
2018-12-24T20:11:53.376Z,101624.45
2018-12-24T20:14:56.863Z,101618.38
2018-12-24T20:18:01.502Z,101615.17
2018-12-24T20:21:07.163Z,101619.22
2018-12-24T20:24:10.698Z,101625.45
2018-12-24T20:27:14.374Z,101626.71
2018-12-24T20:30:17.859Z,101624.52
2018-12-24T20:33:22.374Z,101629.36
2018-12-24T20:36:26.903Z,101626.33
2018-12-24T20:39:30.418Z,101621.80
2018-12-24T20:42:34.978Z,101621.02
2018-12-24T20:45:39.455Z,101628.03
2018-12-24T20:48:43.046Z,101637.84
2018-12-24T20:51:46.676Z,101628.98
2018-12-24T20:54:50.175Z,101626.33
2018-12-24T20:57:53.730Z,101642.23
2018-12-24T21:00:57.384Z,101643.94
2018-12-24T21:04:00.910Z,101646.59
2018-12-24T21:07:07.844Z,101656.81
2018-12-24T21:10:11.526Z,101663.44
2018-12-24T21:13:15.102Z,101663.02
2018-12-24T21:16:18.565Z,101659.46
2018-12-24T21:19:22.064Z,101655.48
2018-12-24T21:22:25.718Z,101654.55
2018-12-24T21:25:29.335Z,101658.06
2018-12-24T21:28:32.976Z,101664.77
2018-12-24T21:31:36.478Z,101666.09
2018-12-24T21:34:39.971Z,101669.64
2018-12-24T21:37:43.489Z,101670.97
2018-12-24T21:40:47.010Z,101676.69
2018-12-24T21:43:52.518Z,101674.04
2018-12-24T21:46:56.031Z,101668.73
2018-12-24T21:49:59.479Z,101663.44
2018-12-24T21:53:03.035Z,101648.86
2018-12-24T21:56:06.552Z,101646.66
2018-12-24T21:59:10.029Z,101631.62
2018-12-24T22:02:13.541Z,101641.29
2018-12-24T22:05:17.103Z,101639.97
2018-12-24T22:08:20.725Z,101645.79
2018-12-24T22:11:24.307Z,101648.86
2018-12-24T22:14:29.882Z,101639.16
2018-12-24T22:17:33.489Z,101650.19
2018-12-24T22:20:37.025Z,101640.91
2018-12-24T22:23:41.503Z,101626.08
2018-12-24T22:26:45.017Z,101624.75
2018-12-24T22:29:48.524Z,101621.69
2018-12-24T22:32:52.023Z,101617.71
2018-12-24T22:36:01.716Z,101614.98
2018-12-24T22:39:07.416Z,101609.76
2018-12-24T22:42:11.953Z,101601.95
2018-12-24T22:45:15.518Z,101592.53
2018-12-24T22:48:19.167Z,101595.67
2018-12-24T22:51:22.766Z,101585.06
2018-12-24T22:54:26.357Z,101587.23
2018-12-24T22:57:29.868Z,101581.55
2018-12-24T23:00:59.558Z,101579.83
2018-12-24T23:04:04.149Z,101577.56
2018-12-24T23:07:07.609Z,101578.82
2018-12-24T23:10:11.122Z,101577.05
2018-12-24T23:13:15.624Z,101576.63
2018-12-24T23:16:21.202Z,101579.28
2018-12-24T23:19:24.665Z,101578.09
2018-12-24T23:22:28.187Z,101583.25
2018-12-24T23:25:31.883Z,101595.73
2018-12-24T23:28:42.346Z,101600.09
2018-12-24T23:31:45.860Z,101601.04
2018-12-24T23:34:49.339Z,101605.02
2018-12-24T23:37:52.920Z,101603.69
2018-12-24T23:40:56.580Z,101610.70
2018-12-24T23:44:00.058Z,101601.42
2018-12-24T23:47:03.597Z,101592.22
2018-12-24T23:50:07.080Z,101606.72
2018-12-24T23:53:10.599Z,101597.45
2018-12-24T23:56:15.114Z,101598.39
2018-12-24T23:59:18.598Z,101584.72
